Andoya, Norway

8:46 AM CEST on August 01, 2014 (GMT +0200)
Andoya Air Base (ENAN) Elev 43 ft | 69.29 °N, 16.14 °E | Change Station

Current weather conditions updated 26 minutes ago

Scattered Clouds
Scattered Clouds
59 °F
Feels Like 59 °F
N
17
Wind Variable Wind from South

Today is forecast to be Cooler than yesterday. Chance of afternoon showers.

Today
High -- | Low -- °F
--% Chance of Precip.
Yesterday
High -- | Low -- °F
Precip. -- in
2:41 AM 11:16 PM
Waxing Crescent, 24% visible
Pressure 29.50 in
Visibility 6.2 miles
Clouds Few 2000 ft
Scattered Clouds 6000 ft
Dew Point 52 °F
Humidity 77%
Rainfall 0.00 in
Snow Depth Not available.
UV 2 out of 12
Pollen Not available.
Air Quality Not available.
Flu Activity Not available.
METAR ENAN 010620Z 18015KT 9999 FEW020CB SCT060 15/11 Q0999 TEMPO SHRA BKN015CB

More Conditions Fewer Conditions

Pressure 29.50 in
Visibility 6.2 miles
Clouds Few 2000 ft
Scattered Clouds 6000 ft
Dew Point 52 °F
Humidity 77%
Rainfall 0.00 in
Snow Depth Not available.
UV 2 out of 12
Pollen Not available.
Air Quality Not available.
Flu Activity Not available.
METAR ENAN 010620Z 18015KT 9999 FEW020CB SCT060 15/11 Q0999 TEMPO SHRA BKN015CB

More Conditions Fewer Conditions

10-Day Weather Forecast

Almanac

Astronomy

Aug. 01, 2014 Rise Set
Actual Time 2:41 AM CEST 11:16 PM CEST
Civil Twilight Sun does not rise Sun does not rise
Nautical Twilight Sun does not rise Sun does not rise
Astronomical Twilight Sun does not rise Sun does not rise
Moon 11:35 AM CEST 9:57 PM CEST
Length of Visible Light 24h 00m
Length of Day
20h 34m
Tomorrow will be 13m 26s shorter.
Waxing Crescent, 24% of the Moon is Illuminated
Today
Waxing Crescent
Aug 3
First Quarter
Aug 10
Full
Aug 17
Last Quarter
Aug 25
New

Yesterday's Extremes

Country Highs Country Lows

Community

WunderPhotos

Upload Photos

1,739,522 photos uploaded!

Nearby

Snow Depth

Not available.

Earthquake Activity

City Distance Mag. Time & Date
No recent earthquake activity has been reported nearby.
Minimum magnitude displayed is 2.5.

Coastal Water Temperatures

Place Temperature
No Stations Reporting

Nearby Weather Stations

There are no personal weather stations in this area.